OIIK  Qazvin Airport

Add Bookmark

Qazvin, Iran

Status
Operational
Latitude Longitude
36° 14' 24" N 50° 2' 49" E
36.240101 50.047100
Local (DST + 5) UTC (GMT + 4)
Oct 24, 2014 11:13 Oct 24, 2014 07:43
Sunrise-Sunset Local UTC
Begin Civil Twilight 05:57 02:27
Sunrise 06:23 02:53
Sunset 05:24 13:54
End Civil Twilight 05:50 14:20

Current Weather

METAR Observed MVFR
OIIK 240700Z 17004KT 7000 SKC 19/06 Q1020 Fri, Oct 24, 2014 @ 07:00 UTC
(43 Minutes ago)
Marginal Visual Flight Rules
Wind Visibility Clouds Conditions
170° at 4 knots (7 kph) 7000 meters
  • Clear skies
  • No significant weather
Temperatures Readings Precipitation
Current Temp 19°C (66°F)
Dewpoint 6°C (43°F)
Humidity 43%
Altimeter 30.12"Hg
Sea Level Pressure 1020mb
Field Elevation 4192.91'
None Recorded

Additional weather within a 92.6km radius of OIIK

Map ICAO Location
OIIP 87km S (126°)

24 Hour Weather History

Loading
-

24 Hour Weather Graphs

Loading
-

CheckWX.com is intended as a tool to help pilots better visualize weather data. It is not intended as a substitute for an official weather briefing obtained from a Flight Service Station. CheckWX.com does not meet the FAA requirements for an official pre-flight weather briefing. Therefore, it's important that pilots still call and obtain an official FSS pre-flight weather briefing.